Time;durP1;ratioP1;P1;durP2;ratioP2;P2;SDS_P1;SDS_P2;PMS_P1;PMS_P2;Temp;Humidity;BMP_temperature;BMP_pressure;BME280_temperature;BME280_humidity;BME280_pressure;Samples;Min_cycle;Max_cycle;Signal;HPM_P1;HPM_P2
2021/01/19 00:01:34;;;;;;;193.15;52.90;;;;;;;;;;8309390;28;20497;-68
2021/01/19 00:05:37;;;;;;;134.13;45.30;;;;;;;;;;8292572;28;20364;-68
2021/01/19 00:09:39;;;;;;;127.00;39.97;;;;;;;;;;8292299;28;20449;-70
2021/01/19 00:13:42;;;;;;;114.32;39.80;;;;;;;;;;8294286;28;20349;-68
2021/01/19 00:17:45;;;;;;;127.82;43.05;;;;;;;;;;8293584;28;20386;-68
2021/01/19 00:21:48;;;;;;;306.05;74.85;;;;;;;;;;8293605;28;20475;-68
2021/01/19 00:25:51;;;;;;;196.27;58.45;;;;;;;;;;8293747;28;20489;-68
2021/01/19 00:29:54;;;;;;;132.18;44.90;;;;;;;;;;8293239;28;20049;-69
2021/01/19 00:33:58;;;;;;;122.82;43.83;;;;;;;;;;8292178;28;20459;-68
2021/01/19 00:38:01;;;;;;;121.80;41.90;;;;;;;;;;8291817;28;20461;-68
2021/01/19 00:42:04;;;;;;;138.98;46.83;;;;;;;;;;8291798;28;20501;-68
2021/01/19 00:46:08;;;;;;;136.43;45.78;;;;;;;;;;8291372;28;20048;-68
2021/01/19 00:50:11;;;;;;;127.93;44.83;;;;;;;;;;8293031;28;20084;-68
2021/01/19 00:54:16;;;;;;;121.65;42.70;;;;;;;;;;8291671;28;20040;-68
2021/01/19 00:58:19;;;;;;;137.10;45.72;;;;;;;;;;8274785;28;20375;-68
2021/01/19 01:02:23;;;;;;;120.97;41.75;;;;;;;;;;8292336;28;20097;-68
2021/01/19 01:06:27;;;;;;;117.93;42.60;;;;;;;;;;8289919;28;20417;-68
2021/01/19 01:10:30;;;;;;;115.90;39.83;;;;;;;;;;8289943;28;20499;-69
2021/01/19 01:14:34;;;;;;;123.32;41.28;;;;;;;;;;8274271;28;20379;-68
2021/01/19 01:18:37;;;;;;;110.75;39.60;;;;;;;;;;8289709;28;20391;-67
2021/01/19 01:22:45;;;;;;;94.68;36.20;;;;;;;;;;8290591;28;20049;-68
2021/01/19 01:26:53;;;;;;;111.53;37.95;;;;;;;;;;8290246;28;20496;-68
2021/01/19 01:30:57;;;;;;;135.70;45.63;;;;;;;;;;8273947;28;20493;-68
2021/01/19 01:35:01;;;;;;;125.88;44.60;;;;;;;;;;8290206;28;20071;-68
2021/01/19 01:39:05;;;;;;;127.03;43.47;;;;;;;;;;8289078;28;20493;-68
2021/01/19 01:43:14;;;;;;;107.57;38.03;;;;;;;;;;8291273;28;20075;-68
2021/01/19 01:47:24;;;;;;;114.57;38.75;;;;;;;;;;8289315;28;20389;-69
2021/01/19 01:51:29;;;;;;;122.07;42.70;;;;;;;;;;8289256;28;20482;-68
2021/01/19 01:55:32;;;;;;;104.70;39.35;;;;;;;;;;8289195;28;20048;-68
2021/01/19 01:59:35;;;;;;;107.95;34.97;;;;;;;;;;8289373;28;20463;-68
2021/01/19 02:03:39;;;;;;;93.53;34.38;;;;;;;;;;8288535;28;20493;-68
2021/01/19 02:08:15;;;;;;;109.05;37.55;;;;;;;;;;8289997;28;20478;-69
2021/01/19 02:12:29;;;;;;;101.32;36.78;;;;;;;;;;8274573;28;20387;-68
2021/01/19 02:16:56;;;;;;;117.55;38.88;;;;;;;;;;8288843;28;20479;-68
2021/01/19 02:21:55;;;;;;;101.70;38.47;;;;;;;;;;8287285;28;20458;-68
2021/01/19 02:25:58;;;;;;;104.85;37.42;;;;;;;;;;8289764;28;20470;-68
2021/01/19 02:30:19;;;;;;;89.10;36.33;;;;;;;;;;8304962;28;20410;-68
2021/01/19 02:34:35;;;;;;;94.22;35.63;;;;;;;;;;8290170;28;20134;-68
2021/01/19 02:39:02;;;;;;;104.20;36.95;;;;;;;;;;8288294;28;20079;-68
2021/01/19 02:43:13;;;;;;;112.32;38.05;;;;;;;;;;8289150;28;20379;-70
2021/01/19 02:47:16;;;;;;;101.32;36.47;;;;;;;;;;8287683;28;20387;-69
2021/01/19 02:51:21;;;;;;;96.22;34.92;;;;;;;;;;8287841;28;20130;-69
2021/01/19 02:55:25;;;;;;;93.88;33.30;;;;;;;;;;8289815;28;20514;-69
2021/01/19 02:59:51;;;;;;;81.35;31.80;;;;;;;;;;8289475;28;20402;-69
2021/01/19 03:03:55;;;;;;;85.57;33.05;;;;;;;;;;8258841;28;20494;-69
2021/01/19 03:08:07;;;;;;;77.53;30.67;;;;;;;;;;8287558;28;20402;-69
2021/01/19 03:12:14;;;;;;;77.47;30.00;;;;;;;;;;8271497;28;20053;-69
2021/01/19 03:16:20;;;;;;;68.53;28.70;;;;;;;;;;8287898;28;20079;-69
2021/01/19 03:20:25;;;;;;;85.47;30.70;;;;;;;;;;8288099;28;20501;-69
2021/01/19 03:24:28;;;;;;;77.00;29.50;;;;;;;;;;8287304;28;20467;-69
2021/01/19 03:28:31;;;;;;;78.38;29.30;;;;;;;;;;8288483;28;20489;-69
2021/01/19 03:32:34;;;;;;;83.15;30.98;;;;;;;;;;8290382;28;20479;-69
2021/01/19 03:36:37;;;;;;;75.60;28.60;;;;;;;;;;8277133;28;20359;-69
2021/01/19 03:40:41;;;;;;;68.85;27.58;;;;;;;;;;8295016;28;20048;-69
2021/01/19 03:44:44;;;;;;;69.53;26.80;;;;;;;;;;8294500;28;20438;-69
2021/01/19 03:48:48;;;;;;;65.78;27.08;;;;;;;;;;8293356;28;20049;-69
2021/01/19 03:52:51;;;;;;;63.78;26.33;;;;;;;;;;8294015;28;20374;-69
2021/01/19 03:56:54;;;;;;;59.85;25.52;;;;;;;;;;8294541;28;20293;-70
2021/01/19 04:00:59;;;;;;;74.40;28.30;;;;;;;;;;8276443;28;20379;-69
2021/01/19 04:05:04;;;;;;;69.45;27.58;;;;;;;;;;8294220;28;20456;-69
2021/01/19 04:09:07;;;;;;;82.07;28.63;;;;;;;;;;8294082;28;20406;-69
2021/01/19 04:13:10;;;;;;;65.47;29.50;;;;;;;;;;8294261;28;20501;-69
2021/01/19 04:17:14;;;;;;;75.00;31.08;;;;;;;;;;8289637;28;20446;-70
2021/01/19 04:21:17;;;;;;;70.40;29.98;;;;;;;;;;8272795;28;20052;-70
2021/01/19 04:25:20;;;;;;;724.25;157.90;;;;;;;;;;8288356;28;20383;-70
2021/01/19 04:29:23;;;;;;;381.92;82.88;;;;;;;;;;8272964;28;20078;-69
2021/01/19 04:33:26;;;;;;;952.05;261.42;;;;;;;;;;8272305;28;20053;-69
2021/01/19 04:37:29;;;;;;;1481.20;473.90;;;;;;;;;;8288902;28;20411;-69
2021/01/19 04:41:33;;;;;;;1046.05;354.52;;;;;;;;;;8288981;28;20470;-70
2021/01/19 04:45:36;;;;;;;505.55;131.63;;;;;;;;;;8271817;28;20463;-69
2021/01/19 04:49:40;;;;;;;153.48;47.58;;;;;;;;;;8290830;28;20363;-70
2021/01/19 04:53:58;;;;;;;52.50;22.52;;;;;;;;;;8292674;28;20410;-70
2021/01/19 04:58:08;;;;;;;48.35;27.38;;;;;;;;;;8291740;28;20482;-70
2021/01/19 05:02:36;;;;;;;129.00;53.65;;;;;;;;;;8292770;28;20478;-70
2021/01/19 05:06:42;;;;;;;;;;;;;;;;;;8308057;28;20493;-70
2021/01/19 05:11:04;;;;;;;297.60;53.20;;;;;;;;;;8292152;28;20372;-71
2021/01/19 05:15:15;;;;;;;318.17;56.60;;;;;;;;;;8291846;28;20130;-70
2021/01/19 05:19:22;;;;;;;330.48;60.10;;;;;;;;;;8290632;28;20479;-70
2021/01/19 05:23:26;;;;;;;401.55;71.80;;;;;;;;;;8287698;28;20497;-70
2021/01/19 05:27:29;;;;;;;363.13;63.00;;;;;;;;;;8291525;28;20494;-70
2021/01/19 05:31:32;;;;;;;337.27;58.20;;;;;;;;;;8291647;28;20471;-70
2021/01/19 05:35:35;;;;;;;273.95;47.80;;;;;;;;;;8244320;28;20659;-70
2021/01/19 05:39:38;;;;;;;95.60;24.70;;;;;;;;;;8201053;28;20547;-70
2021/01/19 05:43:43;;;;;;;334.35;54.47;;;;;;;;;;8216919;28;20484;-70
2021/01/19 05:47:46;;;;;;;330.52;55.80;;;;;;;;;;8219252;28;20458;-70
2021/01/19 05:51:56;;;;;;;129.32;29.80;;;;;;;;;;8215446;28;20353;-70
2021/01/19 05:56:02;;;;;;;360.23;57.40;;;;;;;;;;8219857;28;20471;-70
2021/01/19 06:00:07;;;;;;;200.50;37.83;;;;;;;;;;8219278;28;20506;-71
2021/01/19 06:04:31;;;;;;;284.90;50.67;;;;;;;;;;8222582;28;20732;-71
2021/01/19 06:08:36;;;;;;;484.87;82.93;;;;;;;;;;8203817;28;20479;-70
2021/01/19 06:12:39;;;;;;;327.40;52.15;;;;;;;;;;8186859;28;20502;-70
2021/01/19 06:16:43;;;;;;;269.55;48.95;;;;;;;;;;8220195;28;20477;-71
2021/01/19 06:20:47;;;;;;;131.50;32.90;;;;;;;;;;8188532;28;20494;-71
2021/01/19 06:24:56;;;;;;;248.95;46.33;;;;;;;;;;8187102;28;20448;-71
2021/01/19 06:28:59;;;;;;;270.90;45.53;;;;;;;;;;8203579;28;20475;-70
2021/01/19 06:33:03;;;;;;;338.60;58.28;;;;;;;;;;8220328;28;20494;-70
2021/01/19 06:37:09;;;;;;;317.65;52.92;;;;;;;;;;8220223;28;20464;-71
2021/01/19 06:41:20;;;;;;;292.08;49.45;;;;;;;;;;8220552;28;20464;-73
2021/01/19 06:45:24;;;;;;;295.40;47.75;;;;;;;;;;8204452;28;20449;-71
2021/01/19 06:49:31;;;;;;;341.85;54.65;;;;;;;;;;8222656;28;20068;-71
2021/01/19 06:53:46;;;;;;;174.60;39.25;;;;;;;;;;8254829;28;20498;-71
2021/01/19 06:58:17;;;;;;;312.55;53.45;;;;;;;;;;8205616;28;20640;-71
2021/01/19 07:02:23;;;;;;;194.52;38.03;;;;;;;;;;8255230;28;20387;-71
2021/01/19 07:07:06;;;;;;;174.65;41.58;;;;;;;;;;8257385;28;20502;-71
2021/01/19 07:11:36;;;;;;;288.90;48.75;;;;;;;;;;8263463;28;20414;-72
2021/01/19 07:15:51;;;;;;;298.98;52.63;;;;;;;;;;8262909;28;20371;-71
2021/01/19 07:19:55;;;;;;;221.95;45.63;;;;;;;;;;8263232;28;20056;-70
2021/01/19 07:24:24;;;;;;;202.32;41.00;;;;;;;;;;8261849;28;20472;-70
2021/01/19 07:28:28;;;;;;;207.70;39.50;;;;;;;;;;8261545;28;20475;-71
2021/01/19 07:32:34;;;;;;;223.18;43.60;;;;;;;;;;8261483;28;20460;-71
2021/01/19 07:36:37;;;;;;;217.90;48.75;;;;;;;;;;8244097;28;20378;-71
2021/01/19 07:40:45;;;;;;;284.27;54.85;;;;;;;;;;8260871;28;20075;-71
2021/01/19 07:45:15;;;;;;;269.75;53.08;;;;;;;;;;8262678;28;20052;-70
2021/01/19 07:49:18;;;;;;;285.98;53.25;;;;;;;;;;8260221;28;20158;-71
2021/01/19 07:53:21;;;;;;;201.35;49.25;;;;;;;;;;8260270;28;20388;-71
2021/01/19 07:57:30;;;;;;;228.57;48.10;;;;;;;;;;8261905;28;20067;-71
2021/01/19 08:01:37;;;;;;;190.02;43.75;;;;;;;;;;8256531;28;20071;-71
2021/01/19 08:05:40;;;;;;;139.52;35.22;;;;;;;;;;8258888;28;20586;-72
2021/01/19 08:09:43;;;;;;;193.20;42.28;;;;;;;;;;8230470;28;20491;-71
2021/01/19 08:13:58;;;;;;;293.02;79.32;;;;;;;;;;8259475;28;20521;-71
2021/01/19 08:18:04;;;;;;;148.00;41.10;;;;;;;;;;8258287;28;20502;-71
2021/01/19 08:22:26;;;;;;;145.18;41.67;;;;;;;;;;8257909;28;20368;-71
2021/01/19 08:26:30;;;;;;;100.35;32.35;;;;;;;;;;8276069;28;20475;-71
2021/01/19 08:30:34;;;;;;;118.75;33.15;;;;;;;;;;8261527;28;20483;-71
2021/01/19 08:34:39;;;;;;;128.43;40.65;;;;;;;;;;8260892;28;20379;-71
2021/01/19 08:38:47;;;;;;;118.65;36.13;;;;;;;;;;8259155;28;20487;-71
2021/01/19 08:42:51;;;;;;;115.75;39.65;;;;;;;;;;8240948;28;20476;-71
2021/01/19 08:46:56;;;;;;;114.97;38.13;;;;;;;;;;8254832;28;20390;-71
2021/01/19 08:50:59;;;;;;;121.20;39.38;;;;;;;;;;8258547;28;20460;-72
2021/01/19 08:55:02;;;;;;;161.55;47.90;;;;;;;;;;8252815;28;20053;-71
2021/01/19 08:59:06;;;;;;;100.43;36.30;;;;;;;;;;8258628;28;20472;-72
2021/01/19 09:03:16;;;;;;;114.53;43.58;;;;;;;;;;8259822;28;20363;-72
2021/01/19 09:07:39;;;;;;;69.03;30.42;;;;;;;;;;8258523;28;20468;-74
2021/01/19 09:11:42;;;;;;;80.30;31.38;;;;;;;;;;8253407;28;20375;-71
2021/01/19 09:15:45;;;;;;;110.47;34.35;;;;;;;;;;8253442;28;20056;-71
2021/01/19 09:19:48;;;;;;;111.25;33.38;;;;;;;;;;8256876;28;20451;-71
2021/01/19 09:23:51;;;;;;;96.68;28.73;;;;;;;;;;8234102;28;20500;-71
2021/01/19 09:28:04;;;;;;;145.55;52.95;;;;;;;;;;8266377;28;20493;-72
2021/01/19 09:32:08;;;;;;;129.32;41.88;;;;;;;;;;8254985;28;20506;-72
2021/01/19 09:36:14;;;;;;;93.45;33.47;;;;;;;;;;8253461;28;20499;-72
2021/01/19 09:40:18;;;;;;;96.35;33.13;;;;;;;;;;8258936;28;20383;-72
2021/01/19 09:44:21;;;;;;;65.35;27.23;;;;;;;;;;8242868;28;20475;-72
2021/01/19 09:48:26;;;;;;;73.13;25.50;;;;;;;;;;8240780;28;20639;-72
2021/01/19 09:52:31;;;;;;;78.07;30.27;;;;;;;;;;8256271;28;20372;-72
2021/01/19 09:56:34;;;;;;;93.18;34.80;;;;;;;;;;8244154;28;20478;-72
2021/01/19 10:00:37;;;;;;;67.55;27.63;;;;;;;;;;8255132;28;20400;-72
2021/01/19 10:04:40;;;;;;;80.88;32.88;;;;;;;;;;8256322;28;20452;-72
2021/01/19 10:08:47;;;;;;;107.43;44.83;;;;;;;;;;8251583;28;20044;-72
2021/01/19 10:12:51;;;;;;;88.15;40.60;;;;;;;;;;8256501;28;20053;-73
2021/01/19 10:16:54;;;;;;;190.05;70.65;;;;;;;;;;8253230;28;20410;-72
2021/01/19 10:20:58;;;;;;;85.55;39.17;;;;;;;;;;8253246;28;20414;-73
2021/01/19 10:25:02;;;;;;;91.03;38.45;;;;;;;;;;8257036;28;20049;-73
2021/01/19 10:29:05;;;;;;;71.63;29.42;;;;;;;;;;8257560;28;20383;-73
2021/01/19 10:33:08;;;;;;;73.95;29.17;;;;;;;;;;8255360;28;20410;-73
2021/01/19 10:37:11;;;;;;;78.80;34.78;;;;;;;;;;8257235;28;20376;-73
2021/01/19 10:41:29;;;;;;;60.78;27.15;;;;;;;;;;8255543;28;20511;-74
2021/01/19 10:45:40;;;;;;;86.63;35.53;;;;;;;;;;8257181;28;20414;-73
2021/01/19 10:49:43;;;;;;;70.25;33.15;;;;;;;;;;8255087;28;20392;-73
2021/01/19 10:53:47;;;;;;;60.60;27.45;;;;;;;;;;8256672;28;20379;-73
2021/01/19 10:57:59;;;;;;;60.50;27.85;;;;;;;;;;8256993;28;20071;-73
2021/01/19 11:02:04;;;;;;;75.05;33.10;;;;;;;;;;8255763;28;20380;-74
2021/01/19 11:06:07;;;;;;;68.63;29.85;;;;;;;;;;8256372;28;20418;-74
2021/01/19 11:10:19;;;;;;;40.20;17.48;;;;;;;;;;8230287;28;20383;-74
2021/01/19 11:14:22;;;;;;;42.10;20.10;;;;;;;;;;8269232;28;20381;-74
2021/01/19 11:18:25;;;;;;;58.63;27.17;;;;;;;;;;8257238;28;20383;-74
2021/01/19 11:22:28;;;;;;;67.82;29.50;;;;;;;;;;8250890;28;20406;-74
2021/01/19 11:26:31;;;;;;;62.65;27.05;;;;;;;;;;8253955;28;20375;-74
2021/01/19 11:30:34;;;;;;;96.18;41.55;;;;;;;;;;8254819;28;20361;-73
2021/01/19 11:34:37;;;;;;;74.35;34.45;;;;;;;;;;8252775;28;20383;-74
2021/01/19 11:40:16;;;;;;;76.25;32.47;;;;;;;;;;8267066;28;20472;-73
2021/01/19 11:44:22;;;;;;;110.05;48.83;;;;;;;;;;8248034;28;20475;-74
2021/01/19 11:48:26;;;;;;;93.45;42.47;;;;;;;;;;8256184;28;20472;-72
2021/01/19 11:52:29;;;;;;;79.47;37.13;;;;;;;;;;8253561;28;20041;-73
2021/01/19 11:56:41;;;;;;;65.20;32.97;;;;;;;;;;8261007;28;20382;-73
2021/01/19 12:00:44;;;;;;;51.15;23.25;;;;;;;;;;8219884;28;20375;-72
2021/01/19 12:04:50;;;;;;;60.15;26.45;;;;;;;;;;8261548;28;20376;-72
2021/01/19 12:08:53;;;;;;;62.70;25.90;;;;;;;;;;8261232;28;20394;-72
2021/01/19 12:12:56;;;;;;;66.70;27.55;;;;;;;;;;8257889;28;20053;-73
2021/01/19 12:17:02;;;;;;;50.78;21.85;;;;;;;;;;8261372;28;20041;-73
2021/01/19 12:21:09;;;;;;;56.80;23.40;;;;;;;;;;8260985;28;20498;-73
2021/01/19 12:25:13;;;;;;;55.72;24.15;;;;;;;;;;8275979;28;20391;-73
2021/01/19 12:29:21;;;;;;;49.83;21.05;;;;;;;;;;8261122;28;20505;-73
2021/01/19 12:33:25;;;;;;;70.32;31.45;;;;;;;;;;8261155;28;20415;-73
2021/01/19 12:37:28;;;;;;;66.15;29.30;;;;;;;;;;8257023;28;20480;-73
2021/01/19 12:41:33;;;;;;;76.50;29.08;;;;;;;;;;8259150;28;20353;-73
2021/01/19 12:45:38;;;;;;;61.95;24.38;;;;;;;;;;8259265;28;20482;-74
2021/01/19 12:49:41;;;;;;;74.72;27.23;;;;;;;;;;8254135;28;20383;-73
2021/01/19 12:53:45;;;;;;;80.90;34.65;;;;;;;;;;8256955;28;20506;-74
2021/01/19 12:57:48;;;;;;;92.43;39.42;;;;;;;;;;8258298;28;20452;-74
2021/01/19 13:01:52;;;;;;;55.22;23.95;;;;;;;;;;8256705;28;20476;-74
2021/01/19 13:05:56;;;;;;;47.58;21.33;;;;;;;;;;8258870;28;20360;-74
2021/01/19 13:09:59;;;;;;;73.10;30.17;;;;;;;;;;8259309;28;20486;-74
2021/01/19 13:14:02;;;;;;;61.90;24.55;;;;;;;;;;8257441;28;20053;-74
2021/01/19 13:18:05;;;;;;;39.30;18.65;;;;;;;;;;8256945;28;20072;-75
2021/01/19 13:22:10;;;;;;;46.42;22.08;;;;;;;;;;8259674;28;20068;-75
2021/01/19 13:26:13;;;;;;;57.60;26.45;;;;;;;;;;8255772;28;20049;-75
2021/01/19 13:30:18;;;;;;;43.30;17.88;;;;;;;;;;8258454;28;20484;-74
2021/01/19 13:34:21;;;;;;;47.58;19.80;;;;;;;;;;8258831;28;20417;-75
2021/01/19 13:38:24;;;;;;;45.40;22.65;;;;;;;;;;8253139;28;20383;-75
2021/01/19 13:42:28;;;;;;;160.27;67.53;;;;;;;;;;8258926;28;20357;-73
2021/01/19 13:46:31;;;;;;;47.78;27.92;;;;;;;;;;8258809;28;20447;-71
2021/01/19 13:50:35;;;;;;;43.95;26.98;;;;;;;;;;8258563;28;20372;-73
2021/01/19 13:54:39;;;;;;;43.40;20.17;;;;;;;;;;8258452;28;20379;-73
2021/01/19 13:58:43;;;;;;;45.25;23.50;;;;;;;;;;8240914;28;20375;-73
2021/01/19 14:02:46;;;;;;;55.92;27.67;;;;;;;;;;8189085;28;20042;-72
2021/01/19 14:06:50;;;;;;;75.63;32.90;;;;;;;;;;8188994;28;20456;-71
2021/01/19 14:11:00;;;;;;;90.43;35.50;;;;;;;;;;8188344;28;20388;-72
2021/01/19 14:15:05;;;;;;;34.30;15.63;;;;;;;;;;8188693;28;20481;-72
2021/01/19 14:19:08;;;;;;;45.83;18.98;;;;;;;;;;8188486;28;20469;-75
2021/01/19 14:23:11;;;;;;;369.33;103.47;;;;;;;;;;8188673;28;20377;-74
2021/01/19 14:27:15;;;;;;;64.70;25.13;;;;;;;;;;8188313;28;20484;-72
2021/01/19 14:31:19;;;;;;;125.32;39.33;;;;;;;;;;8191852;28;20483;-72
2021/01/19 14:35:23;;;;;;;118.05;37.42;;;;;;;;;;8257660;28;20517;-72
2021/01/19 14:39:26;;;;;;;474.95;179.23;;;;;;;;;;8257339;28;20345;-73
2021/01/19 14:43:29;;;;;;;383.23;124.68;;;;;;;;;;8255887;28;20367;-72
2021/01/19 14:47:32;;;;;;;114.60;47.80;;;;;;;;;;8254694;28;20053;-72
2021/01/19 14:51:39;;;;;;;68.57;29.77;;;;;;;;;;8256415;28;20468;-72
2021/01/19 14:55:44;;;;;;;55.85;26.10;;;;;;;;;;8256871;28;20501;-73
2021/01/19 14:59:47;;;;;;;54.88;29.52;;;;;;;;;;8257033;28;20440;-73
2021/01/19 15:03:50;;;;;;;166.05;69.40;;;;;;;;;;8256202;28;20049;-71
2021/01/19 15:07:58;;;;;;;65.80;27.25;;;;;;;;;;8256309;28;20075;-73
2021/01/19 15:12:08;;;;;;;63.27;23.87;;;;;;;;;;8256437;28;20383;-71
2021/01/19 15:16:11;;;;;;;52.53;22.88;;;;;;;;;;8255522;28;20384;-74
2021/01/19 15:20:15;;;;;;;66.53;26.77;;;;;;;;;;8255748;28;20383;-76
2021/01/19 15:24:18;;;;;;;115.63;59.25;;;;;;;;;;8251546;28;20593;-73
2021/01/19 15:28:21;;;;;;;227.25;83.32;;;;;;;;;;8255125;28;20045;-75
2021/01/19 15:32:24;;;;;;;76.50;34.22;;;;;;;;;;8212766;28;20452;-75
2021/01/19 15:36:27;;;;;;;63.60;27.15;;;;;;;;;;8296870;28;20094;-74
2021/01/19 15:40:31;;;;;;;57.35;25.52;;;;;;;;;;8299719;28;20056;-74
2021/01/19 15:44:38;;;;;;;50.28;20.88;;;;;;;;;;8305169;28;20485;-75
2021/01/19 15:48:42;;;;;;;55.50;22.88;;;;;;;;;;8302723;28;20049;-73
2021/01/19 15:52:50;;;;;;;47.90;20.33;;;;;;;;;;8294441;28;20645;-74
2021/01/19 15:56:53;;;;;;;40.78;17.98;;;;;;;;;;8290345;28;20483;-74
2021/01/19 16:01:51;;;;;;;43.30;19.08;;;;;;;;;;8418885;27;20601;-74
2021/01/19 16:05:58;;;;;;;39.30;17.73;;;;;;;;;;8393936;28;20508;-75
2021/01/19 16:10:01;;;;;;;50.20;20.75;;;;;;;;;;8373975;28;20461;-75
2021/01/19 16:14:05;;;;;;;78.25;26.50;;;;;;;;;;8395667;28;20392;-74
2021/01/19 16:18:09;;;;;;;57.22;21.90;;;;;;;;;;8391925;28;20488;-74
2021/01/19 16:22:12;;;;;;;48.42;19.80;;;;;;;;;;8371185;28;20366;-74
2021/01/19 16:26:24;;;;;;;56.15;24.50;;;;;;;;;;8390724;28;20359;-75
2021/01/19 16:30:27;;;;;;;55.15;20.33;;;;;;;;;;8341440;28;20482;-76
2021/01/19 16:34:31;;;;;;;52.92;18.95;;;;;;;;;;8393517;28;20455;-74
2021/01/19 16:38:34;;;;;;;44.88;18.88;;;;;;;;;;8395062;28;20450;-75
2021/01/19 16:42:38;;;;;;;44.90;18.55;;;;;;;;;;8390633;28;20385;-74
2021/01/19 16:46:50;;;;;;;37.35;16.55;;;;;;;;;;8321102;27;20455;-75
2021/01/19 16:50:57;;;;;;;43.40;18.35;;;;;;;;;;8295759;28;20571;-73
2021/01/19 16:55:00;;;;;;;39.85;19.38;;;;;;;;;;8294564;28;20074;-75
2021/01/19 16:59:05;;;;;;;39.95;19.10;;;;;;;;;;8291406;28;20481;-74
2021/01/19 17:03:11;;;;;;;42.78;19.50;;;;;;;;;;8309105;28;20422;-75
2021/01/19 17:07:15;;;;;;;41.20;18.45;;;;;;;;;;8286586;28;20087;-74
2021/01/19 17:11:18;;;;;;;81.35;31.92;;;;;;;;;;8278139;28;20189;-75
2021/01/19 17:15:21;;;;;;;47.25;20.55;;;;;;;;;;8272386;28;20415;-75
2021/01/19 17:19:25;;;;;;;53.28;21.88;;;;;;;;;;8268444;28;20474;-74
2021/01/19 17:23:28;;;;;;;38.63;16.05;;;;;;;;;;8271035;28;20067;-77
2021/01/19 17:27:32;;;;;;;41.17;16.70;;;;;;;;;;8273454;28;20071;-74
2021/01/19 17:31:43;;;;;;;38.03;16.63;;;;;;;;;;8275319;28;20053;-74
2021/01/19 17:35:47;;;;;;;34.60;14.55;;;;;;;;;;8269021;28;20055;-74
2021/01/19 17:39:52;;;;;;;32.72;15.13;;;;;;;;;;8248885;28;20423;-75
2021/01/19 17:43:55;;;;;;;29.88;15.23;;;;;;;;;;8282854;28;20374;-74
2021/01/19 17:47:59;;;;;;;29.88;14.15;;;;;;;;;;8271492;28;20462;-75
2021/01/19 17:52:03;;;;;;;31.58;15.48;;;;;;;;;;8277124;28;20356;-75
2021/01/19 17:56:07;;;;;;;35.03;16.70;;;;;;;;;;8275423;28;20459;-75
2021/01/19 18:00:11;;;;;;;136.05;34.67;;;;;;;;;;8285060;28;20604;-75
2021/01/19 18:04:15;;;;;;;79.45;26.20;;;;;;;;;;8280240;28;20041;-75
2021/01/19 18:08:19;;;;;;;74.50;24.02;;;;;;;;;;8297156;28;20478;-75
2021/01/19 18:12:26;;;;;;;72.68;23.30;;;;;;;;;;8292302;28;20402;-76
2021/01/19 18:16:35;;;;;;;49.50;18.48;;;;;;;;;;8310688;28;20467;-76
2021/01/19 18:20:38;;;;;;;47.90;21.23;;;;;;;;;;8296054;28;20486;-75
2021/01/19 18:24:48;;;;;;;70.18;26.38;;;;;;;;;;8264429;28;20086;-75
2021/01/19 18:28:51;;;;;;;60.53;26.90;;;;;;;;;;8297213;28;20078;-75
2021/01/19 18:32:56;;;;;;;75.88;31.08;;;;;;;;;;8289926;28;20478;-75
2021/01/19 18:37:08;;;;;;;173.13;54.83;;;;;;;;;;8292405;28;20422;-75
2021/01/19 18:41:20;;;;;;;202.65;59.88;;;;;;;;;;8293080;28;20368;-75
2021/01/19 18:45:25;;;;;;;237.13;70.35;;;;;;;;;;8296644;28;20479;-75
2021/01/19 18:49:29;;;;;;;235.02;68.13;;;;;;;;;;8299629;28;20074;-76
2021/01/19 18:53:32;;;;;;;177.00;58.35;;;;;;;;;;8305765;28;20382;-75
2021/01/19 18:57:41;;;;;;;425.70;164.63;;;;;;;;;;8311160;28;20659;-75
2021/01/19 19:01:45;;;;;;;212.57;66.32;;;;;;;;;;8293426;28;20433;-76
2021/01/19 19:05:48;;;;;;;289.90;76.95;;;;;;;;;;8295495;28;20395;-75
2021/01/19 19:09:51;;;;;;;517.83;239.25;;;;;;;;;;8297181;28;20070;-76
2021/01/19 19:13:54;;;;;;;265.10;63.70;;;;;;;;;;8295566;28;20379;-75
2021/01/19 19:18:01;;;;;;;135.48;43.45;;;;;;;;;;8296923;28;20420;-76
2021/01/19 19:22:05;;;;;;;88.38;34.13;;;;;;;;;;8291259;28;20668;-75
2021/01/19 19:26:09;;;;;;;94.78;37.83;;;;;;;;;;8296695;28;20417;-75
2021/01/19 19:30:14;;;;;;;71.30;33.15;;;;;;;;;;8292503;28;20113;-76
2021/01/19 19:34:18;;;;;;;78.70;37.80;;;;;;;;;;8289167;28;20471;-75
2021/01/19 19:38:22;;;;;;;50.20;22.85;;;;;;;;;;8289699;28;20356;-75
2021/01/19 19:42:25;;;;;;;68.20;30.33;;;;;;;;;;8290439;28;20368;-76
2021/01/19 19:46:28;;;;;;;146.80;43.50;;;;;;;;;;8292145;28;20360;-75
2021/01/19 19:50:32;;;;;;;221.05;86.38;;;;;;;;;;8287798;28;20892;-75
2021/01/19 19:54:35;;;;;;;1397.32;447.70;;;;;;;;;;8289549;28;20070;-75
2021/01/19 19:58:41;;;;;;;595.92;116.32;;;;;;;;;;8306409;28;20387;-77
2021/01/19 20:02:44;;;;;;;419.88;73.95;;;;;;;;;;8304879;28;20504;-75
2021/01/19 20:06:48;;;;;;;411.88;66.13;;;;;;;;;;8287464;28;20049;-75
2021/01/19 20:10:52;;;;;;;313.67;55.08;;;;;;;;;;8261228;28;20041;-76
2021/01/19 20:14:57;;;;;;;507.42;83.05;;;;;;;;;;8291789;28;20512;-76
2021/01/19 20:19:01;;;;;;;221.93;39.75;;;;;;;;;;8293888;28;20485;-76
2021/01/19 20:23:04;;;;;;;366.48;58.90;;;;;;;;;;8290671;28;20466;-75
2021/01/19 20:27:08;;;;;;;222.35;39.30;;;;;;;;;;8303441;28;20475;-75
2021/01/19 20:31:21;;;;;;;197.13;35.97;;;;;;;;;;8268574;28;20528;-75
2021/01/19 20:35:24;;;;;;;293.67;52.08;;;;;;;;;;8284424;28;20413;-76
2021/01/19 20:39:28;;;;;;;160.77;30.27;;;;;;;;;;8283751;28;20044;-75
2021/01/19 20:43:32;;;;;;;301.98;50.88;;;;;;;;;;8280652;28;20426;-76
2021/01/19 20:47:40;;;;;;;267.55;58.83;;;;;;;;;;8290020;28;20410;-76
2021/01/19 20:52:05;;;;;;;261.80;70.88;;;;;;;;;;8306026;28;20048;-75
2021/01/19 20:56:12;;;;;;;96.13;23.42;;;;;;;;;;8304700;28;20052;-76
2021/01/19 21:00:17;;;;;;;100.05;22.20;;;;;;;;;;8303560;28;20036;-76
2021/01/19 21:04:21;;;;;;;162.55;40.30;;;;;;;;;;8267608;28;20472;-76
2021/01/19 21:08:25;;;;;;;83.28;20.58;;;;;;;;;;8261235;28;20391;-76
2021/01/19 21:12:29;;;;;;;236.05;49.92;;;;;;;;;;8279394;28;20502;-77
2021/01/19 21:16:38;;;;;;;161.88;39.22;;;;;;;;;;8269921;28;20466;-77
2021/01/19 21:20:41;;;;;;;302.88;51.08;;;;;;;;;;8261826;28;20044;-76
2021/01/19 21:24:45;;;;;;;206.55;38.55;;;;;;;;;;8263739;28;20067;-76
2021/01/19 21:28:50;;;;;;;237.85;42.15;;;;;;;;;;8261487;28;20516;-76
2021/01/19 21:32:56;;;;;;;168.07;33.70;;;;;;;;;;8259943;28;20076;-75
2021/01/19 21:37:01;;;;;;;108.68;21.92;;;;;;;;;;8260087;28;20056;-76
2021/01/19 21:41:04;;;;;;;77.78;17.17;;;;;;;;;;8273598;28;20387;-77
2021/01/19 21:45:12;;;;;;;142.13;26.60;;;;;;;;;;8261224;28;20379;-76
2021/01/19 21:49:15;;;;;;;143.50;27.73;;;;;;;;;;8273401;28;20083;-77
2021/01/19 21:53:18;;;;;;;164.23;28.23;;;;;;;;;;8273360;28;20379;-76
2021/01/19 21:57:21;;;;;;;166.70;30.33;;;;;;;;;;8260889;28;20749;-76
2021/01/19 22:01:24;;;;;;;176.93;30.25;;;;;;;;;;8259486;28;20380;-76
2021/01/19 22:05:27;;;;;;;186.10;32.75;;;;;;;;;;8259540;28;20049;-76
2021/01/19 22:09:30;;;;;;;125.97;27.20;;;;;;;;;;8257851;28;20071;-76
2021/01/19 22:13:33;;;;;;;113.97;24.15;;;;;;;;;;8258358;28;20380;-77
2021/01/19 22:17:38;;;;;;;98.13;21.40;;;;;;;;;;8255886;28;20363;-76
2021/01/19 22:21:42;;;;;;;81.53;18.10;;;;;;;;;;8255908;28;20368;-76
2021/01/19 22:25:45;;;;;;;64.40;16.30;;;;;;;;;;8252453;28;20382;-76
2021/01/19 22:29:48;;;;;;;129.27;25.02;;;;;;;;;;8251371;28;20491;-76
2021/01/19 22:33:51;;;;;;;73.88;19.50;;;;;;;;;;8251026;28;20493;-76
2021/01/19 22:37:55;;;;;;;92.47;21.27;;;;;;;;;;8252031;28;20383;-77
2021/01/19 22:41:58;;;;;;;195.25;34.78;;;;;;;;;;8250053;28;20543;-76
2021/01/19 22:46:01;;;;;;;108.38;26.17;;;;;;;;;;8249958;28;20535;-76
2021/01/19 22:50:05;;;;;;;175.98;36.10;;;;;;;;;;8248889;28;20376;-76
2021/01/19 22:54:08;;;;;;;66.10;19.85;;;;;;;;;;8250350;28;20437;-76
2021/01/19 22:58:12;;;;;;;148.48;34.03;;;;;;;;;;8250062;28;20484;-75
2021/01/19 23:02:15;;;;;;;136.18;30.80;;;;;;;;;;8249019;28;20379;-76
2021/01/19 23:06:18;;;;;;;98.93;26.75;;;;;;;;;;8249505;28;20448;-75
2021/01/19 23:10:21;;;;;;;93.22;25.13;;;;;;;;;;8247342;28;20642;-76
2021/01/19 23:14:26;;;;;;;85.57;22.38;;;;;;;;;;8251399;28;20057;-76
2021/01/19 23:18:29;;;;;;;99.18;26.33;;;;;;;;;;8252978;28;20386;-76
2021/01/19 23:22:32;;;;;;;75.30;24.02;;;;;;;;;;8254166;28;20490;-76
2021/01/19 23:26:35;;;;;;;44.00;16.83;;;;;;;;;;8254175;28;20415;-76
2021/01/19 23:30:38;;;;;;;47.78;17.05;;;;;;;;;;8256544;28;20379;-76
2021/01/19 23:34:41;;;;;;;71.65;20.67;;;;;;;;;;8258704;28;20380;-76
2021/01/19 23:38:45;;;;;;;49.92;16.02;;;;;;;;;;8258694;28;20356;-76
2021/01/19 23:42:48;;;;;;;80.05;25.25;;;;;;;;;;8258155;28;20049;-76